sensor_id;sensor_type;location;lat;lon;timestamp;P1;durP1;ratioP1;P2;durP2;ratioP2
17598;SDS011;8918;52.092;5.232;2023-02-18T00:02:01;42.60;;;20.57;;
17598;SDS011;8918;52.092;5.232;2023-02-18T00:04:30;48.67;;;22.47;;
17598;SDS011;8918;52.092;5.232;2023-02-18T00:06:55;48.97;;;22.67;;
17598;SDS011;8918;52.092;5.232;2023-02-18T00:09:21;50.00;;;23.53;;
17598;SDS011;8918;52.092;5.232;2023-02-18T00:11:47;54.33;;;23.60;;
17598;SDS011;8918;52.092;5.232;2023-02-18T00:14:13;51.83;;;23.53;;
17598;SDS011;8918;52.092;5.232;2023-02-18T00:16:40;53.73;;;24.17;;
17598;SDS011;8918;52.092;5.232;2023-02-18T00:19:07;52.23;;;24.50;;
17598;SDS011;8918;52.092;5.232;2023-02-18T00:21:35;55.03;;;24.83;;
17598;SDS011;8918;52.092;5.232;2023-02-18T00:24:02;51.23;;;24.23;;
17598;SDS011;8918;52.092;5.232;2023-02-18T00:26:29;57.33;;;24.60;;
17598;SDS011;8918;52.092;5.232;2023-02-18T00:28:54;55.73;;;25.20;;
17598;SDS011;8918;52.092;5.232;2023-02-18T00:31:21;63.83;;;26.00;;
17598;SDS011;8918;52.092;5.232;2023-02-18T00:33:49;56.83;;;25.67;;
17598;SDS011;8918;52.092;5.232;2023-02-18T00:36:15;55.27;;;24.40;;
17598;SDS011;8918;52.092;5.232;2023-02-18T00:38:46;57.10;;;26.70;;
17598;SDS011;8918;52.092;5.232;2023-02-18T00:41:14;58.73;;;25.70;;
17598;SDS011;8918;52.092;5.232;2023-02-18T00:43:40;56.63;;;25.33;;
17598;SDS011;8918;52.092;5.232;2023-02-18T00:46:06;64.93;;;25.70;;
17598;SDS011;8918;52.092;5.232;2023-02-18T00:48:32;62.40;;;24.40;;
17598;SDS011;8918;52.092;5.232;2023-02-18T00:50:58;57.63;;;23.60;;
17598;SDS011;8918;52.092;5.232;2023-02-18T00:53:24;52.60;;;22.33;;
17598;SDS011;8918;52.092;5.232;2023-02-18T00:55:51;50.67;;;22.27;;
17598;SDS011;8918;52.092;5.232;2023-02-18T00:58:17;53.60;;;23.13;;
17598;SDS011;8918;52.092;5.232;2023-02-18T01:00:42;48.57;;;21.27;;
17598;SDS011;8918;52.092;5.232;2023-02-18T01:03:09;49.97;;;21.23;;
17598;SDS011;8918;52.092;5.232;2023-02-18T01:05:36;46.87;;;21.53;;
17598;SDS011;8918;52.092;5.232;2023-02-18T01:08:02;52.47;;;21.00;;
17598;SDS011;8918;52.092;5.232;2023-02-18T01:10:29;49.43;;;21.17;;
17598;SDS011;8918;52.092;5.232;2023-02-18T01:12:54;47.20;;;20.77;;
17598;SDS011;8918;52.092;5.232;2023-02-18T01:15:20;48.80;;;20.67;;
17598;SDS011;8918;52.092;5.232;2023-02-18T01:17:47;48.87;;;21.17;;
17598;SDS011;8918;52.092;5.232;2023-02-18T01:20:13;43.70;;;20.57;;
17598;SDS011;8918;52.092;5.232;2023-02-18T01:22:39;42.00;;;19.77;;
17598;SDS011;8918;52.092;5.232;2023-02-18T01:25:06;39.50;;;17.80;;
17598;SDS011;8918;52.092;5.232;2023-02-18T01:27:32;35.97;;;17.80;;
17598;SDS011;8918;52.092;5.232;2023-02-18T01:29:58;37.60;;;17.97;;
17598;SDS011;8918;52.092;5.232;2023-02-18T01:32:24;36.83;;;18.53;;
17598;SDS011;8918;52.092;5.232;2023-02-18T01:34:49;38.30;;;17.27;;
17598;SDS011;8918;52.092;5.232;2023-02-18T01:37:15;38.63;;;18.50;;
17598;SDS011;8918;52.092;5.232;2023-02-18T01:39:40;42.07;;;18.57;;
17598;SDS011;8918;52.092;5.232;2023-02-18T01:42:06;40.80;;;18.33;;
17598;SDS011;8918;52.092;5.232;2023-02-18T01:44:42;40.93;;;18.20;;
17598;SDS011;8918;52.092;5.232;2023-02-18T01:47:08;44.57;;;18.93;;
17598;SDS011;8918;52.092;5.232;2023-02-18T01:49:34;46.77;;;19.37;;
17598;SDS011;8918;52.092;5.232;2023-02-18T01:52:05;45.37;;;20.00;;
17598;SDS011;8918;52.092;5.232;2023-02-18T01:54:39;48.10;;;19.37;;
17598;SDS011;8918;52.092;5.232;2023-02-18T01:57:09;47.33;;;19.73;;
17598;SDS011;8918;52.092;5.232;2023-02-18T01:59:59;52.00;;;21.17;;
17598;SDS011;8918;52.092;5.232;2023-02-18T02:02:36;54.37;;;20.07;;
17598;SDS011;8918;52.092;5.232;2023-02-18T02:05:04;47.97;;;18.90;;
17598;SDS011;8918;52.092;5.232;2023-02-18T02:07:31;49.30;;;20.50;;
17598;SDS011;8918;52.092;5.232;2023-02-18T02:09:57;48.80;;;20.30;;
17598;SDS011;8918;52.092;5.232;2023-02-18T02:12:27;49.47;;;21.10;;
17598;SDS011;8918;52.092;5.232;2023-02-18T02:23:17;60.23;;;23.20;;
17598;SDS011;8918;52.092;5.232;2023-02-18T02:26:15;61.20;;;24.23;;
17598;SDS011;8918;52.092;5.232;2023-02-18T02:31:47;61.70;;;23.97;;
17598;SDS011;8918;52.092;5.232;2023-02-18T02:37:04;56.57;;;22.47;;
17598;SDS011;8918;52.092;5.232;2023-02-18T02:42:18;57.70;;;23.90;;
17598;SDS011;8918;52.092;5.232;2023-02-18T02:44:55;58.70;;;22.73;;
17598;SDS011;8918;52.092;5.232;2023-02-18T02:47:40;57.07;;;22.87;;
17598;SDS011;8918;52.092;5.232;2023-02-18T02:53:38;55.77;;;23.43;;
17598;SDS011;8918;52.092;5.232;2023-02-18T02:56:09;54.37;;;22.83;;
17598;SDS011;8918;52.092;5.232;2023-02-18T02:58:39;52.90;;;22.70;;
17598;SDS011;8918;52.092;5.232;2023-02-18T03:11:38;58.43;;;23.30;;
17598;SDS011;8918;52.092;5.232;2023-02-18T03:17:03;51.60;;;20.50;;
17598;SDS011;8918;52.092;5.232;2023-02-18T03:19:41;55.43;;;21.50;;
17598;SDS011;8918;52.092;5.232;2023-02-18T03:24:48;52.03;;;19.97;;
17598;SDS011;8918;52.092;5.232;2023-02-18T03:27:17;51.87;;;19.80;;
17598;SDS011;8918;52.092;5.232;2023-02-18T03:29:45;47.80;;;18.20;;
17598;SDS011;8918;52.092;5.232;2023-02-18T03:32:15;41.13;;;16.27;;
17598;SDS011;8918;52.092;5.232;2023-02-18T03:34:45;39.63;;;15.93;;
17598;SDS011;8918;52.092;5.232;2023-02-18T03:37:14;39.13;;;15.23;;
17598;SDS011;8918;52.092;5.232;2023-02-18T03:39:40;29.33;;;13.00;;
17598;SDS011;8918;52.092;5.232;2023-02-18T03:42:09;27.83;;;12.37;;
17598;SDS011;8918;52.092;5.232;2023-02-18T03:44:35;24.67;;;10.73;;
17598;SDS011;8918;52.092;5.232;2023-02-18T03:47:01;23.30;;;10.70;;
17598;SDS011;8918;52.092;5.232;2023-02-18T03:49:27;20.03;;;9.60;;
17598;SDS011;8918;52.092;5.232;2023-02-18T03:51:52;18.20;;;8.83;;
17598;SDS011;8918;52.092;5.232;2023-02-18T03:54:18;18.67;;;9.03;;
17598;SDS011;8918;52.092;5.232;2023-02-18T03:56:44;18.80;;;8.53;;
17598;SDS011;8918;52.092;5.232;2023-02-18T03:59:10;15.97;;;8.03;;
17598;SDS011;8918;52.092;5.232;2023-02-18T04:01:37;18.97;;;8.53;;
17598;SDS011;8918;52.092;5.232;2023-02-18T04:04:02;15.37;;;7.30;;
17598;SDS011;8918;52.092;5.232;2023-02-18T04:06:28;13.70;;;7.17;;
17598;SDS011;8918;52.092;5.232;2023-02-18T04:08:55;14.37;;;6.83;;
17598;SDS011;8918;52.092;5.232;2023-02-18T04:11:20;13.77;;;7.17;;
17598;SDS011;8918;52.092;5.232;2023-02-18T04:13:46;12.87;;;6.53;;
17598;SDS011;8918;52.092;5.232;2023-02-18T04:16:11;12.27;;;7.00;;
17598;SDS011;8918;52.092;5.232;2023-02-18T04:18:37;11.80;;;6.57;;
17598;SDS011;8918;52.092;5.232;2023-02-18T04:21:03;11.80;;;7.03;;
17598;SDS011;8918;52.092;5.232;2023-02-18T04:23:29;12.63;;;6.70;;
17598;SDS011;8918;52.092;5.232;2023-02-18T04:25:54;10.87;;;6.47;;
17598;SDS011;8918;52.092;5.232;2023-02-18T04:28:20;13.93;;;8.10;;
17598;SDS011;8918;52.092;5.232;2023-02-18T04:30:46;14.30;;;7.77;;
17598;SDS011;8918;52.092;5.232;2023-02-18T04:33:12;12.00;;;7.10;;
17598;SDS011;8918;52.092;5.232;2023-02-18T04:35:37;12.50;;;7.17;;
17598;SDS011;8918;52.092;5.232;2023-02-18T04:38:05;12.20;;;7.07;;
17598;SDS011;8918;52.092;5.232;2023-02-18T04:40:31;13.83;;;7.37;;
17598;SDS011;8918;52.092;5.232;2023-02-18T04:42:57;13.87;;;7.67;;
17598;SDS011;8918;52.092;5.232;2023-02-18T04:45:23;12.23;;;6.93;;
17598;SDS011;8918;52.092;5.232;2023-02-18T04:47:50;12.10;;;7.23;;
17598;SDS011;8918;52.092;5.232;2023-02-18T04:50:15;14.10;;;7.47;;
17598;SDS011;8918;52.092;5.232;2023-02-18T04:52:41;10.80;;;6.00;;
17598;SDS011;8918;52.092;5.232;2023-02-18T04:55:07;12.87;;;7.37;;
17598;SDS011;8918;52.092;5.232;2023-02-18T04:57:32;13.50;;;7.57;;
17598;SDS011;8918;52.092;5.232;2023-02-18T04:59:58;13.77;;;8.20;;
17598;SDS011;8918;52.092;5.232;2023-02-18T05:02:23;16.57;;;9.27;;
17598;SDS011;8918;52.092;5.232;2023-02-18T05:04:49;15.97;;;8.17;;
17598;SDS011;8918;52.092;5.232;2023-02-18T05:07:15;15.03;;;8.87;;
17598;SDS011;8918;52.092;5.232;2023-02-18T05:09:41;14.07;;;9.17;;
17598;SDS011;8918;52.092;5.232;2023-02-18T05:12:06;13.27;;;8.57;;
17598;SDS011;8918;52.092;5.232;2023-02-18T05:14:32;15.40;;;9.30;;
17598;SDS011;8918;52.092;5.232;2023-02-18T05:16:58;12.97;;;8.13;;
17598;SDS011;8918;52.092;5.232;2023-02-18T05:19:23;15.37;;;8.70;;
17598;SDS011;8918;52.092;5.232;2023-02-18T05:21:49;13.40;;;8.53;;
17598;SDS011;8918;52.092;5.232;2023-02-18T05:24:14;16.73;;;9.13;;
17598;SDS011;8918;52.092;5.232;2023-02-18T05:26:40;18.03;;;9.50;;
17598;SDS011;8918;52.092;5.232;2023-02-18T05:29:05;18.03;;;10.17;;
17598;SDS011;8918;52.092;5.232;2023-02-18T05:31:31;18.10;;;10.83;;
17598;SDS011;8918;52.092;5.232;2023-02-18T05:33:57;19.33;;;11.40;;
17598;SDS011;8918;52.092;5.232;2023-02-18T05:36:22;22.07;;;12.27;;
17598;SDS011;8918;52.092;5.232;2023-02-18T05:38:48;24.13;;;13.77;;
17598;SDS011;8918;52.092;5.232;2023-02-18T05:41:14;28.13;;;15.63;;
17598;SDS011;8918;52.092;5.232;2023-02-18T05:43:39;28.47;;;15.67;;
17598;SDS011;8918;52.092;5.232;2023-02-18T05:46:23;29.43;;;16.97;;
17598;SDS011;8918;52.092;5.232;2023-02-18T05:48:49;29.43;;;17.27;;
17598;SDS011;8918;52.092;5.232;2023-02-18T05:51:15;30.33;;;16.40;;
17598;SDS011;8918;52.092;5.232;2023-02-18T05:53:40;28.93;;;15.90;;
17598;SDS011;8918;52.092;5.232;2023-02-18T05:56:06;25.73;;;15.23;;
17598;SDS011;8918;52.092;5.232;2023-02-18T05:58:32;23.80;;;13.83;;
17598;SDS011;8918;52.092;5.232;2023-02-18T06:00:57;24.30;;;13.37;;
17598;SDS011;8918;52.092;5.232;2023-02-18T06:03:23;24.83;;;14.93;;
17598;SDS011;8918;52.092;5.232;2023-02-18T06:05:49;21.67;;;13.60;;
17598;SDS011;8918;52.092;5.232;2023-02-18T06:08:15;24.53;;;13.47;;
17598;SDS011;8918;52.092;5.232;2023-02-18T06:10:40;24.80;;;14.80;;
17598;SDS011;8918;52.092;5.232;2023-02-18T06:13:06;25.27;;;13.60;;
17598;SDS011;8918;52.092;5.232;2023-02-18T06:15:31;26.20;;;15.00;;
17598;SDS011;8918;52.092;5.232;2023-02-18T06:17:57;25.47;;;14.30;;
17598;SDS011;8918;52.092;5.232;2023-02-18T06:20:23;28.30;;;14.57;;
17598;SDS011;8918;52.092;5.232;2023-02-18T06:22:48;26.13;;;15.20;;
17598;SDS011;8918;52.092;5.232;2023-02-18T06:25:14;26.47;;;15.00;;
17598;SDS011;8918;52.092;5.232;2023-02-18T06:27:39;27.10;;;15.43;;
17598;SDS011;8918;52.092;5.232;2023-02-18T06:30:05;26.40;;;14.87;;
17598;SDS011;8918;52.092;5.232;2023-02-18T06:32:31;25.43;;;13.63;;
17598;SDS011;8918;52.092;5.232;2023-02-18T06:34:57;24.37;;;13.23;;
17598;SDS011;8918;52.092;5.232;2023-02-18T06:37:22;25.87;;;13.10;;
17598;SDS011;8918;52.092;5.232;2023-02-18T06:39:48;23.53;;;13.53;;
17598;SDS011;8918;52.092;5.232;2023-02-18T06:42:13;23.83;;;12.70;;
17598;SDS011;8918;52.092;5.232;2023-02-18T06:44:39;23.77;;;13.40;;
17598;SDS011;8918;52.092;5.232;2023-02-18T06:47:05;24.77;;;12.33;;
17598;SDS011;8918;52.092;5.232;2023-02-18T06:49:31;27.80;;;14.43;;
17598;SDS011;8918;52.092;5.232;2023-02-18T06:51:57;30.17;;;14.67;;
17598;SDS011;8918;52.092;5.232;2023-02-18T06:54:22;30.60;;;15.87;;
17598;SDS011;8918;52.092;5.232;2023-02-18T06:56:49;27.43;;;15.13;;
17598;SDS011;8918;52.092;5.232;2023-02-18T06:59:15;31.77;;;15.20;;
17598;SDS011;8918;52.092;5.232;2023-02-18T07:01:41;36.17;;;15.43;;
17598;SDS011;8918;52.092;5.232;2023-02-18T07:04:07;30.40;;;15.43;;
17598;SDS011;8918;52.092;5.232;2023-02-18T07:06:32;33.87;;;16.53;;
17598;SDS011;8918;52.092;5.232;2023-02-18T07:08:58;34.97;;;15.87;;
17598;SDS011;8918;52.092;5.232;2023-02-18T07:11:24;37.60;;;16.63;;
17598;SDS011;8918;52.092;5.232;2023-02-18T07:13:49;32.30;;;16.17;;
17598;SDS011;8918;52.092;5.232;2023-02-18T07:16:15;37.13;;;16.90;;
17598;SDS011;8918;52.092;5.232;2023-02-18T07:18:40;34.87;;;16.90;;
17598;SDS011;8918;52.092;5.232;2023-02-18T07:21:06;35.20;;;17.13;;
17598;SDS011;8918;52.092;5.232;2023-02-18T07:23:32;32.90;;;16.40;;
17598;SDS011;8918;52.092;5.232;2023-02-18T07:26:04;30.63;;;16.43;;
17598;SDS011;8918;52.092;5.232;2023-02-18T07:28:31;35.17;;;17.07;;
17598;SDS011;8918;52.092;5.232;2023-02-18T07:30:57;32.27;;;15.80;;
17598;SDS011;8918;52.092;5.232;2023-02-18T07:33:23;27.67;;;15.90;;
17598;SDS011;8918;52.092;5.232;2023-02-18T07:35:52;29.03;;;14.77;;
17598;SDS011;8918;52.092;5.232;2023-02-18T07:38:22;23.93;;;13.87;;
17598;SDS011;8918;52.092;5.232;2023-02-18T07:40:49;25.30;;;13.60;;
17598;SDS011;8918;52.092;5.232;2023-02-18T07:43:15;23.67;;;11.77;;
17598;SDS011;8918;52.092;5.232;2023-02-18T07:45:40;27.40;;;11.27;;
17598;SDS011;8918;52.092;5.232;2023-02-18T07:48:06;24.97;;;10.90;;
17598;SDS011;8918;52.092;5.232;2023-02-18T07:50:32;18.10;;;8.87;;
17598;SDS011;8918;52.092;5.232;2023-02-18T07:53:01;26.23;;;8.83;;
17598;SDS011;8918;52.092;5.232;2023-02-18T07:55:27;23.33;;;7.80;;
17598;SDS011;8918;52.092;5.232;2023-02-18T07:58:13;27.73;;;8.07;;
17598;SDS011;8918;52.092;5.232;2023-02-18T08:00:39;20.70;;;6.97;;
17598;SDS011;8918;52.092;5.232;2023-02-18T08:03:05;19.43;;;6.30;;
17598;SDS011;8918;52.092;5.232;2023-02-18T08:05:30;21.83;;;6.80;;
17598;SDS011;8918;52.092;5.232;2023-02-18T08:07:56;18.90;;;5.67;;
17598;SDS011;8918;52.092;5.232;2023-02-18T08:10:22;23.63;;;5.83;;
17598;SDS011;8918;52.092;5.232;2023-02-18T08:12:47;27.47;;;5.57;;
17598;SDS011;8918;52.092;5.232;2023-02-18T08:15:13;22.03;;;5.20;;
17598;SDS011;8918;52.092;5.232;2023-02-18T08:17:38;22.53;;;4.80;;
17598;SDS011;8918;52.092;5.232;2023-02-18T08:20:08;21.70;;;4.77;;
17598;SDS011;8918;52.092;5.232;2023-02-18T08:22:34;26.10;;;5.00;;
17598;SDS011;8918;52.092;5.232;2023-02-18T08:25:00;19.87;;;4.60;;
17598;SDS011;8918;52.092;5.232;2023-02-18T08:27:25;18.03;;;4.40;;
17598;SDS011;8918;52.092;5.232;2023-02-18T08:29:52;20.27;;;4.03;;
17598;SDS011;8918;52.092;5.232;2023-02-18T08:32:18;20.43;;;4.10;;
17598;SDS011;8918;52.092;5.232;2023-02-18T08:34:43;22.13;;;4.80;;
17598;SDS011;8918;52.092;5.232;2023-02-18T08:37:09;18.77;;;3.73;;
17598;SDS011;8918;52.092;5.232;2023-02-18T08:39:36;16.13;;;3.20;;
17598;SDS011;8918;52.092;5.232;2023-02-18T08:42:02;23.97;;;4.23;;
17598;SDS011;8918;52.092;5.232;2023-02-18T08:44:28;15.27;;;3.67;;
17598;SDS011;8918;52.092;5.232;2023-02-18T08:46:54;20.37;;;3.47;;
17598;SDS011;8918;52.092;5.232;2023-02-18T08:49:20;16.10;;;3.70;;
17598;SDS011;8918;52.092;5.232;2023-02-18T08:51:48;16.63;;;3.43;;
17598;SDS011;8918;52.092;5.232;2023-02-18T08:54:17;19.60;;;3.70;;
17598;SDS011;8918;52.092;5.232;2023-02-18T08:56:42;16.23;;;3.67;;
17598;SDS011;8918;52.092;5.232;2023-02-18T08:59:08;18.97;;;3.33;;
17598;SDS011;8918;52.092;5.232;2023-02-18T09:01:34;18.60;;;4.23;;
17598;SDS011;8918;52.092;5.232;2023-02-18T09:03:59;20.50;;;3.63;;
17598;SDS011;8918;52.092;5.232;2023-02-18T09:06:25;15.80;;;3.40;;
17598;SDS011;8918;52.092;5.232;2023-02-18T09:08:51;13.47;;;3.70;;
17598;SDS011;8918;52.092;5.232;2023-02-18T09:11:17;17.17;;;3.47;;
17598;SDS011;8918;52.092;5.232;2023-02-18T09:13:43;12.73;;;3.20;;
17598;SDS011;8918;52.092;5.232;2023-02-18T09:16:11;13.50;;;3.33;;
17598;SDS011;8918;52.092;5.232;2023-02-18T09:18:39;18.20;;;3.37;;
17598;SDS011;8918;52.092;5.232;2023-02-18T09:21:06;13.03;;;3.30;;
17598;SDS011;8918;52.092;5.232;2023-02-18T09:23:33;14.93;;;3.63;;
17598;SDS011;8918;52.092;5.232;2023-02-18T09:25:59;11.77;;;3.13;;
17598;SDS011;8918;52.092;5.232;2023-02-18T09:28:28;13.70;;;3.10;;
17598;SDS011;8918;52.092;5.232;2023-02-18T09:30:53;16.53;;;3.80;;
17598;SDS011;8918;52.092;5.232;2023-02-18T09:33:19;11.80;;;2.77;;
17598;SDS011;8918;52.092;5.232;2023-02-18T09:35:45;11.87;;;2.80;;
17598;SDS011;8918;52.092;5.232;2023-02-18T09:38:12;14.30;;;3.20;;
17598;SDS011;8918;52.092;5.232;2023-02-18T09:40:41;12.30;;;3.23;;
17598;SDS011;8918;52.092;5.232;2023-02-18T09:43:22;14.00;;;3.40;;
17598;SDS011;8918;52.092;5.232;2023-02-18T09:45:53;14.17;;;3.40;;
17598;SDS011;8918;52.092;5.232;2023-02-18T09:48:21;16.13;;;3.30;;
17598;SDS011;8918;52.092;5.232;2023-02-18T09:50:52;13.37;;;3.10;;
17598;SDS011;8918;52.092;5.232;2023-02-18T09:53:18;19.20;;;3.73;;
17598;SDS011;8918;52.092;5.232;2023-02-18T09:55:47;14.33;;;3.47;;
17598;SDS011;8918;52.092;5.232;2023-02-18T09:58:19;14.27;;;3.47;;
17598;SDS011;8918;52.092;5.232;2023-02-18T10:00:52;15.40;;;3.30;;
17598;SDS011;8918;52.092;5.232;2023-02-18T10:03:30;14.17;;;3.43;;
17598;SDS011;8918;52.092;5.232;2023-02-18T10:06:03;17.87;;;3.73;;
17598;SDS011;8918;52.092;5.232;2023-02-18T10:08:46;16.70;;;3.83;;
17598;SDS011;8918;52.092;5.232;2023-02-18T10:11:16;15.17;;;3.50;;
17598;SDS011;8918;52.092;5.232;2023-02-18T10:13:54;17.97;;;3.77;;
17598;SDS011;8918;52.092;5.232;2023-02-18T10:16:21;14.10;;;3.70;;
17598;SDS011;8918;52.092;5.232;2023-02-18T10:18:49;12.73;;;3.10;;
17598;SDS011;8918;52.092;5.232;2023-02-18T10:21:21;13.37;;;3.50;;
17598;SDS011;8918;52.092;5.232;2023-02-18T10:26:22;17.87;;;4.00;;
17598;SDS011;8918;52.092;5.232;2023-02-18T10:28:48;15.17;;;4.00;;
17598;SDS011;8918;52.092;5.232;2023-02-18T10:31:17;10.13;;;3.43;;
17598;SDS011;8918;52.092;5.232;2023-02-18T10:33:55;14.20;;;4.07;;
17598;SDS011;8918;52.092;5.232;2023-02-18T10:36:30;20.03;;;3.83;;
17598;SDS011;8918;52.092;5.232;2023-02-18T10:53:11;17.00;;;3.70;;
17598;SDS011;8918;52.092;5.232;2023-02-18T10:55:45;15.33;;;4.07;;
17598;SDS011;8918;52.092;5.232;2023-02-18T10:58:24;15.70;;;3.90;;
17598;SDS011;8918;52.092;5.232;2023-02-18T11:00:50;17.53;;;3.77;;
17598;SDS011;8918;52.092;5.232;2023-02-18T11:03:20;16.73;;;4.27;;
17598;SDS011;8918;52.092;5.232;2023-02-18T11:05:49;13.40;;;3.60;;
17598;SDS011;8918;52.092;5.232;2023-02-18T11:08:21;14.93;;;3.40;;
17598;SDS011;8918;52.092;5.232;2023-02-18T11:10:51;18.33;;;3.93;;
17598;SDS011;8918;52.092;5.232;2023-02-18T11:13:22;18.57;;;4.27;;
17598;SDS011;8918;52.092;5.232;2023-02-18T11:18:36;12.03;;;3.43;;
17598;SDS011;8918;52.092;5.232;2023-02-18T11:21:05;16.83;;;3.87;;
17598;SDS011;8918;52.092;5.232;2023-02-18T11:23:47;16.67;;;3.30;;
17598;SDS011;8918;52.092;5.232;2023-02-18T11:26:15;13.50;;;3.30;;
17598;SDS011;8918;52.092;5.232;2023-02-18T11:28:46;14.00;;;3.43;;
17598;SDS011;8918;52.092;5.232;2023-02-18T11:31:20;16.87;;;3.87;;
17598;SDS011;8918;52.092;5.232;2023-02-18T11:33:52;14.40;;;4.20;;
17598;SDS011;8918;52.092;5.232;2023-02-18T11:36:27;9.87;;;3.13;;
17598;SDS011;8918;52.092;5.232;2023-02-18T11:38:57;14.27;;;3.60;;
17598;SDS011;8918;52.092;5.232;2023-02-18T11:41:29;16.40;;;3.77;;
17598;SDS011;8918;52.092;5.232;2023-02-18T11:43:59;18.13;;;4.00;;
17598;SDS011;8918;52.092;5.232;2023-02-18T11:46:25;15.37;;;3.83;;
17598;SDS011;8918;52.092;5.232;2023-02-18T11:48:52;15.90;;;4.50;;
17598;SDS011;8918;52.092;5.232;2023-02-18T11:51:19;16.23;;;3.87;;
17598;SDS011;8918;52.092;5.232;2023-02-18T11:53:56;15.37;;;3.40;;
17598;SDS011;8918;52.092;5.232;2023-02-18T11:56:33;9.37;;;3.07;;
17598;SDS011;8918;52.092;5.232;2023-02-18T11:59:01;13.47;;;4.10;;
17598;SDS011;8918;52.092;5.232;2023-02-18T12:01:49;16.10;;;3.80;;
17598;SDS011;8918;52.092;5.232;2023-02-18T12:04:20;21.37;;;4.23;;
17598;SDS011;8918;52.092;5.232;2023-02-18T12:09:42;16.47;;;3.60;;
17598;SDS011;8918;52.092;5.232;2023-02-18T12:12:15;12.43;;;3.50;;
17598;SDS011;8918;52.092;5.232;2023-02-18T12:14:48;15.00;;;3.57;;
17598;SDS011;8918;52.092;5.232;2023-02-18T12:22:50;16.57;;;4.03;;
17598;SDS011;8918;52.092;5.232;2023-02-18T12:28:21;12.53;;;2.93;;
17598;SDS011;8918;52.092;5.232;2023-02-18T12:36:23;9.53;;;3.00;;
17598;SDS011;8918;52.092;5.232;2023-02-18T12:41:43;12.50;;;2.93;;
17598;SDS011;8918;52.092;5.232;2023-02-18T12:44:16;12.97;;;2.80;;
17598;SDS011;8918;52.092;5.232;2023-02-18T12:55:17;11.67;;;3.10;;
17598;SDS011;8918;52.092;5.232;2023-02-18T12:58:15;13.73;;;3.17;;
17598;SDS011;8918;52.092;5.232;2023-02-18T13:09:37;9.87;;;2.53;;
17598;SDS011;8918;52.092;5.232;2023-02-18T13:17:42;12.53;;;2.93;;
17598;SDS011;8918;52.092;5.232;2023-02-18T13:20:13;11.30;;;2.97;;
17598;SDS011;8918;52.092;5.232;2023-02-18T13:22:46;9.63;;;2.50;;
17598;SDS011;8918;52.092;5.232;2023-02-18T13:25:14;10.70;;;3.07;;
17598;SDS011;8918;52.092;5.232;2023-02-18T13:27:44;10.03;;;3.10;;
17598;SDS011;8918;52.092;5.232;2023-02-18T13:33:11;10.37;;;2.77;;
17598;SDS011;8918;52.092;5.232;2023-02-18T13:35:51;7.00;;;2.87;;
17598;SDS011;8918;52.092;5.232;2023-02-18T13:38:38;17.27;;;3.50;;
17598;SDS011;8918;52.092;5.232;2023-02-18T13:41:16;7.50;;;2.80;;
17598;SDS011;8918;52.092;5.232;2023-02-18T13:43:42;10.80;;;3.20;;
17598;SDS011;8918;52.092;5.232;2023-02-18T13:46:11;10.70;;;2.83;;
17598;SDS011;8918;52.092;5.232;2023-02-18T13:51:25;10.40;;;2.80;;
17598;SDS011;8918;52.092;5.232;2023-02-18T13:53:59;11.43;;;2.87;;
17598;SDS011;8918;52.092;5.232;2023-02-18T13:56:34;9.03;;;2.80;;
17598;SDS011;8918;52.092;5.232;2023-02-18T13:59:08;8.33;;;3.07;;
17598;SDS011;8918;52.092;5.232;2023-02-18T14:01:42;8.10;;;2.60;;
17598;SDS011;8918;52.092;5.232;2023-02-18T14:07:16;8.50;;;3.60;;
17598;SDS011;8918;52.092;5.232;2023-02-18T14:09:49;11.00;;;3.07;;
17598;SDS011;8918;52.092;5.232;2023-02-18T14:15:40;9.07;;;2.57;;
17598;SDS011;8918;52.092;5.232;2023-02-18T14:17:48;9.33;;;2.70;;
17598;SDS011;8918;52.092;5.232;2023-02-18T14:22:49;8.57;;;2.80;;
17598;SDS011;8918;52.092;5.232;2023-02-18T14:25:38;8.17;;;2.67;;
17598;SDS011;8918;52.092;5.232;2023-02-18T14:28:35;9.60;;;3.07;;
17598;SDS011;8918;52.092;5.232;2023-02-18T14:33:36;11.77;;;3.70;;
17598;SDS011;8918;52.092;5.232;2023-02-18T14:38:51;10.83;;;3.47;;
17598;SDS011;8918;52.092;5.232;2023-02-18T14:44:03;15.93;;;3.17;;
17598;SDS011;8918;52.092;5.232;2023-02-18T14:52:14;9.30;;;2.70;;
17598;SDS011;8918;52.092;5.232;2023-02-18T14:54:43;9.67;;;2.63;;
17598;SDS011;8918;52.092;5.232;2023-02-18T14:57:14;9.30;;;2.80;;
17598;SDS011;8918;52.092;5.232;2023-02-18T14:59:42;11.13;;;2.90;;
17598;SDS011;8918;52.092;5.232;2023-02-18T15:02:22;11.93;;;3.00;;
17598;SDS011;8918;52.092;5.232;2023-02-18T15:05:00;10.40;;;3.27;;
17598;SDS011;8918;52.092;5.232;2023-02-18T15:07:37;11.57;;;3.20;;
17598;SDS011;8918;52.092;5.232;2023-02-18T15:10:02;9.77;;;3.23;;
17598;SDS011;8918;52.092;5.232;2023-02-18T15:12:28;8.60;;;2.90;;
17598;SDS011;8918;52.092;5.232;2023-02-18T15:15:02;11.77;;;3.57;;
17598;SDS011;8918;52.092;5.232;2023-02-18T15:17:30;11.17;;;2.87;;
17598;SDS011;8918;52.092;5.232;2023-02-18T15:19:56;11.00;;;3.63;;
17598;SDS011;8918;52.092;5.232;2023-02-18T15:22:30;11.73;;;3.07;;
17598;SDS011;8918;52.092;5.232;2023-02-18T15:24:58;14.67;;;3.47;;
17598;SDS011;8918;52.092;5.232;2023-02-18T15:27:24;9.23;;;3.43;;
17598;SDS011;8918;52.092;5.232;2023-02-18T15:32:56;11.07;;;3.10;;
17598;SDS011;8918;52.092;5.232;2023-02-18T15:35:27;10.73;;;2.93;;
17598;SDS011;8918;52.092;5.232;2023-02-18T15:37:56;11.23;;;3.60;;
17598;SDS011;8918;52.092;5.232;2023-02-18T15:40:24;12.90;;;3.40;;
17598;SDS011;8918;52.092;5.232;2023-02-18T15:42:55;9.83;;;3.30;;
17598;SDS011;8918;52.092;5.232;2023-02-18T15:45:23;12.57;;;3.97;;
17598;SDS011;8918;52.092;5.232;2023-02-18T15:47:55;12.63;;;3.70;;
17598;SDS011;8918;52.092;5.232;2023-02-18T15:50:26;15.07;;;4.53;;
17598;SDS011;8918;52.092;5.232;2023-02-18T15:53:17;16.47;;;3.73;;
17598;SDS011;8918;52.092;5.232;2023-02-18T15:55:45;14.13;;;3.73;;
17598;SDS011;8918;52.092;5.232;2023-02-18T15:58:16;13.53;;;4.07;;
17598;SDS011;8918;52.092;5.232;2023-02-18T16:03:22;17.07;;;4.83;;
17598;SDS011;8918;52.092;5.232;2023-02-18T16:05:50;15.67;;;4.03;;
17598;SDS011;8918;52.092;5.232;2023-02-18T16:08:33;14.23;;;4.73;;
17598;SDS011;8918;52.092;5.232;2023-02-18T16:10:59;8.50;;;4.20;;
17598;SDS011;8918;52.092;5.232;2023-02-18T16:13:30;13.97;;;4.20;;
17598;SDS011;8918;52.092;5.232;2023-02-18T16:15:56;10.93;;;4.93;;
17598;SDS011;8918;52.092;5.232;2023-02-18T16:18:44;15.00;;;5.07;;
17598;SDS011;8918;52.092;5.232;2023-02-18T16:23:56;13.47;;;4.80;;
17598;SDS011;8918;52.092;5.232;2023-02-18T16:29:04;13.80;;;5.27;;
17598;SDS011;8918;52.092;5.232;2023-02-18T16:31:39;14.07;;;5.30;;
17598;SDS011;8918;52.092;5.232;2023-02-18T16:34:05;15.33;;;5.07;;
17598;SDS011;8918;52.092;5.232;2023-02-18T16:36:31;14.03;;;5.37;;
17598;SDS011;8918;52.092;5.232;2023-02-18T16:38:56;15.37;;;5.30;;
17598;SDS011;8918;52.092;5.232;2023-02-18T16:41:25;16.07;;;5.20;;
17598;SDS011;8918;52.092;5.232;2023-02-18T16:43:51;20.53;;;5.43;;
17598;SDS011;8918;52.092;5.232;2023-02-18T16:46:18;13.57;;;6.60;;
17598;SDS011;8918;52.092;5.232;2023-02-18T16:48:47;18.87;;;6.70;;
17598;SDS011;8918;52.092;5.232;2023-02-18T16:51:20;19.80;;;5.37;;
17598;SDS011;8918;52.092;5.232;2023-02-18T16:53:49;16.83;;;5.77;;
17598;SDS011;8918;52.092;5.232;2023-02-18T16:56:19;16.07;;;5.17;;
17598;SDS011;8918;52.092;5.232;2023-02-18T16:58:49;15.57;;;5.33;;
17598;SDS011;8918;52.092;5.232;2023-02-18T17:01:26;14.97;;;6.10;;
17598;SDS011;8918;52.092;5.232;2023-02-18T17:03:55;16.40;;;5.30;;
17598;SDS011;8918;52.092;5.232;2023-02-18T17:06:21;16.80;;;6.40;;
17598;SDS011;8918;52.092;5.232;2023-02-18T17:08:47;18.90;;;5.80;;
17598;SDS011;8918;52.092;5.232;2023-02-18T17:11:15;19.77;;;6.23;;